createdAt,value
2017-09-24T00:00:59.918Z,131.20
2017-09-24T00:01:59.937Z,134.90
2017-09-24T00:02:59.953Z,145.60
2017-09-24T00:03:59.975Z,139.80
2017-09-24T00:04:59.999Z,125.80
2017-09-24T00:06:00.016Z,122.50
2017-09-24T00:07:00.039Z,123.80
2017-09-24T00:08:00.064Z,126.40
2017-09-24T00:09:00.083Z,123.10
2017-09-24T00:10:00.104Z,130.80
2017-09-24T00:11:00.124Z,122.00
2017-09-24T00:12:00.150Z,131.40
2017-09-24T00:13:00.164Z,124.00
2017-09-24T00:14:00.182Z,135.10
2017-09-24T00:15:00.199Z,116.70
2017-09-24T00:16:00.224Z,128.90
2017-09-24T00:17:00.239Z,124.10
2017-09-24T00:18:00.264Z,117.10
2017-09-24T00:19:00.281Z,123.80
2017-09-24T00:20:00.298Z,124.00
2017-09-24T00:21:00.343Z,123.20
2017-09-24T00:22:00.344Z,136.50
2017-09-24T00:23:00.368Z,109.90
2017-09-24T00:24:00.380Z,110.80
2017-09-24T00:25:00.407Z,106.80
2017-09-24T00:26:00.427Z,111.10
2017-09-24T00:27:00.447Z,116.20
2017-09-24T00:28:00.470Z,111.60
2017-09-24T00:29:00.490Z,115.90
2017-09-24T00:30:00.507Z,108.10
2017-09-24T00:31:00.533Z,120.20
2017-09-24T00:32:00.550Z,119.70
2017-09-24T00:33:00.573Z,127.80
2017-09-24T00:34:00.590Z,130.50
2017-09-24T00:35:00.620Z,123.70
2017-09-24T00:36:00.626Z,115.20
2017-09-24T00:37:00.649Z,119.90
2017-09-24T00:38:00.670Z,114.30
2017-09-24T00:39:00.689Z,117.30
2017-09-24T00:40:00.711Z,111.30
2017-09-24T00:41:00.732Z,116.30
2017-09-24T00:42:00.748Z,116.70
2017-09-24T00:43:00.771Z,123.80
2017-09-24T00:44:00.795Z,118.20
2017-09-24T00:45:00.817Z,113.10
2017-09-24T00:46:00.832Z,113.30
2017-09-24T00:47:00.853Z,105.50
2017-09-24T00:48:00.877Z,122.80
2017-09-24T00:49:00.892Z,131.10
2017-09-24T00:50:00.913Z,132.80
2017-09-24T00:51:00.942Z,125.90
2017-09-24T00:52:00.955Z,126.40
2017-09-24T00:53:00.975Z,112.10
2017-09-24T00:54:01.001Z,121.70
2017-09-24T00:55:01.028Z,127.90
2017-09-24T00:56:01.035Z,121.30
2017-09-24T00:57:01.063Z,125.80
2017-09-24T00:58:01.078Z,126.10
2017-09-24T00:59:01.104Z,129.60
2017-09-24T01:00:01.129Z,125.50
2017-09-24T01:01:01.140Z,121.30
2017-09-24T01:02:01.168Z,138.20
2017-09-24T01:03:01.191Z,128.60
2017-09-24T01:04:01.208Z,125.90
2017-09-24T01:05:01.232Z,145.70
2017-09-24T01:06:01.239Z,136.80
2017-09-24T01:07:01.265Z,145.80
2017-09-24T01:08:01.284Z,147.60
2017-09-24T01:09:01.299Z,134.90
2017-09-24T01:10:01.329Z,128.60
2017-09-24T01:11:01.350Z,114.60
2017-09-24T01:12:01.361Z,119.70
2017-09-24T01:13:01.383Z,124.30
2017-09-24T01:14:01.406Z,134.90
2017-09-24T01:15:01.424Z,139.60
2017-09-24T01:16:01.442Z,138.40
2017-09-24T01:17:01.466Z,131.90
2017-09-24T01:18:01.485Z,135.00
2017-09-24T01:19:01.504Z,133.00
2017-09-24T01:20:01.530Z,136.60
2017-09-24T01:21:01.553Z,145.80
2017-09-24T01:22:01.564Z,143.90
2017-09-24T01:23:01.589Z,146.00
2017-09-24T01:24:01.614Z,140.30
2017-09-24T01:25:01.627Z,148.30
2017-09-24T01:26:01.644Z,128.60
2017-09-24T01:27:01.674Z,147.20
2017-09-24T01:28:01.687Z,153.50
2017-09-24T01:29:01.704Z,139.40
2017-09-24T01:30:01.727Z,137.40
2017-09-24T01:31:01.748Z,131.40
2017-09-24T01:32:01.769Z,139.50
2017-09-24T01:33:01.787Z,138.40
2017-09-24T01:34:01.810Z,144.70
2017-09-24T01:35:01.838Z,143.40
2017-09-24T01:36:01.851Z,138.10
2017-09-24T01:37:01.869Z,133.30
2017-09-24T01:38:01.889Z,131.20
2017-09-24T01:39:01.910Z,130.00
2017-09-24T01:40:01.935Z,122.80
2017-09-24T01:41:01.951Z,122.90
2017-09-24T01:42:01.981Z,127.90
2017-09-24T01:43:02.009Z,129.20
2017-09-24T01:44:02.018Z,120.00
2017-09-24T01:45:02.032Z,141.10
2017-09-24T01:46:02.051Z,129.00
2017-09-24T01:47:02.073Z,142.20
2017-09-24T01:48:02.091Z,148.80
2017-09-24T01:49:02.116Z,145.80
2017-09-24T01:50:02.131Z,153.90
2017-09-24T01:51:02.155Z,169.70
2017-09-24T01:52:02.171Z,169.90
2017-09-24T01:53:02.191Z,154.10
2017-09-24T01:54:02.211Z,133.70
2017-09-24T01:55:02.235Z,142.30
2017-09-24T01:56:02.275Z,131.20
2017-09-24T01:57:02.275Z,130.40
2017-09-24T01:58:02.294Z,134.90
2017-09-24T01:59:02.320Z,130.90
2017-09-24T02:00:02.358Z,146.40
2017-09-24T02:01:02.356Z,137.00
2017-09-24T02:02:02.379Z,130.10
2017-09-24T02:03:02.393Z,130.30
2017-09-24T02:04:02.415Z,127.00
2017-09-24T02:05:02.436Z,133.90
2017-09-24T02:06:02.462Z,136.70
2017-09-24T02:07:02.473Z,131.80
2017-09-24T02:08:02.491Z,132.90
2017-09-24T02:09:02.553Z,141.60
2017-09-24T02:10:02.537Z,146.80
2017-09-24T02:11:02.557Z,149.00
2017-09-24T02:12:02.576Z,140.70
2017-09-24T02:13:02.598Z,130.10
2017-09-24T02:14:02.613Z,135.30
2017-09-24T02:15:02.637Z,137.20
2017-09-24T02:16:02.656Z,140.60
2017-09-24T02:17:02.674Z,140.10
2017-09-24T02:18:02.701Z,136.00
2017-09-24T02:19:02.717Z,143.90
2017-09-24T02:20:02.746Z,142.80
2017-09-24T02:21:02.755Z,145.90
2017-09-24T02:22:02.777Z,135.60
2017-09-24T02:23:02.796Z,137.70
2017-09-24T02:24:02.814Z,133.60
2017-09-24T02:25:02.839Z,129.10
2017-09-24T02:26:02.860Z,125.70
2017-09-24T02:27:02.889Z,139.00
2017-09-24T02:28:02.896Z,146.10
2017-09-24T02:29:02.916Z,126.30
2017-09-24T02:30:02.940Z,135.90
2017-09-24T02:31:02.960Z,125.00
2017-09-24T02:32:02.978Z,128.00
2017-09-24T02:33:02.999Z,124.40
2017-09-24T02:34:03.022Z,117.10
2017-09-24T02:35:03.041Z,122.80
2017-09-24T02:36:03.076Z,121.70
2017-09-24T02:37:03.083Z,117.40
2017-09-24T02:38:03.097Z,118.20
2017-09-24T02:39:03.119Z,119.40
2017-09-24T02:40:03.140Z,110.50
2017-09-24T02:41:03.166Z,115.50
2017-09-24T02:42:03.178Z,109.70
2017-09-24T02:43:03.202Z,114.90
2017-09-24T02:44:03.221Z,107.80
2017-09-24T02:45:03.241Z,120.20
2017-09-24T02:46:03.258Z,125.50
2017-09-24T02:47:03.279Z,133.20
2017-09-24T02:48:03.301Z,134.90
2017-09-24T02:49:03.324Z,123.20
2017-09-24T02:50:03.344Z,122.30
2017-09-24T02:51:03.373Z,126.80
2017-09-24T02:52:03.381Z,128.30
2017-09-24T02:53:03.406Z,135.00
2017-09-24T02:54:03.426Z,132.50
2017-09-24T02:55:03.442Z,130.40
2017-09-24T02:56:03.466Z,135.30
2017-09-24T02:57:03.484Z,134.30
2017-09-24T02:58:03.512Z,130.60
2017-09-24T02:59:03.525Z,129.30
2017-09-24T03:00:03.540Z,121.30
2017-09-24T03:01:03.562Z,119.40
2017-09-24T03:02:03.586Z,125.30
2017-09-24T03:03:03.607Z,124.10
2017-09-24T03:04:03.632Z,135.80
2017-09-24T03:05:03.642Z,139.20
2017-09-24T03:06:03.663Z,138.90
2017-09-24T03:07:03.684Z,127.20
2017-09-24T03:08:03.708Z,135.70
2017-09-24T03:09:03.727Z,149.00
2017-09-24T03:10:03.748Z,131.10
2017-09-24T03:11:03.767Z,146.40
2017-09-24T03:12:03.783Z,126.40
2017-09-24T03:13:03.811Z,129.10
2017-09-24T03:14:03.826Z,129.70
2017-09-24T03:15:03.845Z,143.70
2017-09-24T03:16:03.871Z,132.60
2017-09-24T03:17:03.887Z,124.60
2017-09-24T03:18:03.907Z,138.00
2017-09-24T03:19:03.929Z,159.40
2017-09-24T03:20:03.957Z,140.60
2017-09-24T03:21:03.970Z,134.90
2017-09-24T03:22:03.994Z,147.40
2017-09-24T03:23:04.014Z,146.10
2017-09-24T03:24:04.028Z,158.40
2017-09-24T03:25:04.054Z,141.60
2017-09-24T03:26:04.065Z,133.40
2017-09-24T03:27:04.092Z,126.40
2017-09-24T03:28:04.108Z,122.40
2017-09-24T03:29:04.130Z,116.90
2017-09-24T03:30:04.157Z,133.50
2017-09-24T03:31:04.183Z,125.50
2017-09-24T03:32:04.199Z,124.80
2017-09-24T03:33:04.217Z,123.20
2017-09-24T03:34:04.235Z,127.30
2017-09-24T03:35:04.253Z,124.00
2017-09-24T03:36:04.272Z,128.50
2017-09-24T03:37:04.291Z,128.40
2017-09-24T03:38:04.313Z,130.90
2017-09-24T03:39:04.332Z,138.40
2017-09-24T03:40:04.349Z,135.00
2017-09-24T03:41:04.368Z,150.20
2017-09-24T03:42:04.399Z,148.00
2017-09-24T03:43:04.409Z,129.80
2017-09-24T03:44:04.431Z,129.90
2017-09-24T03:45:04.450Z,128.40
2017-09-24T03:46:04.469Z,118.60
2017-09-24T03:47:04.490Z,115.90
2017-09-24T03:48:04.516Z,110.00
2017-09-24T03:49:04.531Z,113.30
2017-09-24T03:50:04.559Z,115.50
2017-09-24T03:51:04.571Z,121.20
2017-09-24T03:52:04.592Z,128.30
2017-09-24T03:53:04.617Z,121.20
2017-09-24T03:54:04.638Z,132.90
2017-09-24T03:55:04.650Z,123.70
2017-09-24T03:56:04.676Z,115.20
2017-09-24T03:57:04.693Z,121.60
2017-09-24T03:58:04.715Z,121.20
2017-09-24T03:59:04.738Z,131.00
2017-09-24T04:00:04.757Z,129.90
2017-09-24T04:01:04.775Z,144.60
2017-09-24T04:02:04.796Z,143.70
2017-09-24T04:03:04.816Z,140.90
2017-09-24T04:04:04.837Z,144.10
2017-09-24T04:05:04.857Z,134.90
2017-09-24T04:06:04.874Z,127.00
2017-09-24T04:07:04.899Z,127.70
2017-09-24T04:08:04.913Z,130.20
2017-09-24T04:09:04.932Z,145.80
2017-09-24T04:10:04.962Z,136.60
2017-09-24T04:11:04.981Z,138.30
2017-09-24T04:12:05.000Z,116.90
2017-09-24T04:13:05.016Z,114.80
2017-09-24T04:14:05.037Z,132.00
2017-09-24T04:15:05.058Z,122.40
2017-09-24T04:16:05.075Z,126.60
2017-09-24T04:17:05.097Z,123.60
2017-09-24T04:18:05.114Z,134.90
2017-09-24T04:19:05.138Z,134.40
2017-09-24T04:20:05.152Z,118.90
2017-09-24T04:21:05.175Z,124.60
2017-09-24T04:22:05.195Z,116.70
2017-09-24T04:23:05.218Z,104.40
2017-09-24T04:24:05.238Z,114.20
2017-09-24T04:25:05.255Z,120.20
2017-09-24T04:26:05.282Z,116.30
2017-09-24T04:27:05.297Z,118.60
2017-09-24T04:28:05.314Z,124.20
2017-09-24T04:29:05.337Z,114.10
2017-09-24T04:30:05.356Z,121.70
2017-09-24T04:31:05.374Z,120.10
2017-09-24T04:32:05.397Z,115.10
2017-09-24T04:33:05.419Z,112.80
2017-09-24T04:34:05.441Z,118.70
2017-09-24T04:35:05.477Z,112.50
2017-09-24T04:36:05.474Z,122.00
2017-09-24T04:37:05.498Z,124.80
2017-09-24T04:38:05.522Z,115.50
2017-09-24T04:39:05.553Z,113.00
2017-09-24T04:40:05.557Z,116.60
2017-09-24T04:41:05.612Z,119.50
2017-09-24T04:42:05.604Z,122.60
2017-09-24T04:43:05.622Z,124.60
2017-09-24T04:44:05.639Z,121.10
2017-09-24T04:45:05.662Z,125.90
2017-09-24T04:46:05.730Z,115.50
2017-09-24T04:47:05.787Z,125.40
2017-09-24T04:48:05.776Z,115.30
2017-09-24T04:49:05.751Z,120.20
2017-09-24T04:50:05.811Z,125.00
2017-09-24T04:51:05.785Z,126.50
2017-09-24T04:52:05.799Z,116.20
2017-09-24T04:53:05.845Z,139.80
2017-09-24T04:54:05.842Z,135.00
2017-09-24T04:55:05.981Z,133.50
2017-09-24T04:56:05.908Z,134.00
2017-09-24T04:57:05.909Z,125.30
2017-09-24T04:58:05.923Z,125.60
2017-09-24T04:59:06.041Z,127.30
2017-09-24T05:00:05.959Z,135.30
2017-09-24T05:01:05.988Z,124.50
2017-09-24T05:02:06.100Z,114.10
2017-09-24T05:03:06.040Z,134.10
2017-09-24T05:04:06.060Z,129.30
2017-09-24T05:05:06.152Z,132.20
2017-09-24T05:06:06.109Z,144.10
2017-09-24T05:07:06.107Z,137.60
2017-09-24T05:08:06.169Z,132.10
2017-09-24T05:09:06.154Z,136.70
2017-09-24T05:10:06.163Z,145.10
2017-09-24T05:11:06.193Z,131.50
2017-09-24T05:12:06.202Z,133.70
2017-09-24T05:13:06.263Z,122.70
2017-09-24T05:14:06.249Z,122.40
2017-09-24T05:15:06.265Z,118.10
2017-09-24T05:16:06.282Z,129.70
2017-09-24T05:17:06.330Z,131.80
2017-09-24T05:18:06.322Z,122.10
2017-09-24T05:19:06.341Z,126.10
2017-09-24T05:20:06.360Z,131.90
2017-09-24T05:21:06.392Z,132.10
2017-09-24T05:22:06.402Z,124.90
2017-09-24T05:23:06.439Z,131.60
2017-09-24T05:24:06.460Z,125.20
2017-09-24T05:25:06.477Z,130.40
2017-09-24T05:26:06.484Z,125.10
2017-09-24T05:27:06.503Z,136.50
2017-09-24T05:28:06.529Z,152.30
2017-09-24T05:29:06.548Z,130.10
2017-09-24T05:30:06.568Z,143.30
2017-09-24T05:31:06.581Z,132.20
2017-09-24T05:32:06.604Z,137.90
2017-09-24T05:33:06.634Z,135.30
2017-09-24T05:34:06.653Z,127.20
2017-09-24T05:35:06.665Z,116.90
2017-09-24T05:36:06.685Z,120.30
2017-09-24T05:37:06.704Z,114.40
2017-09-24T05:38:06.853Z,114.70
2017-09-24T05:39:06.761Z,117.80
2017-09-24T05:40:06.764Z,124.30
2017-09-24T05:41:06.809Z,126.70
2017-09-24T05:42:06.803Z,128.80
2017-09-24T05:43:06.819Z,120.90
2017-09-24T05:44:06.840Z,125.00
2017-09-24T05:45:06.864Z,111.30
2017-09-24T05:46:06.883Z,110.00
2017-09-24T05:47:06.905Z,121.10
2017-09-24T05:48:06.929Z,120.60
2017-09-24T05:49:06.945Z,130.20
2017-09-24T05:50:06.971Z,118.70
2017-09-24T05:51:06.981Z,116.40
2017-09-24T05:52:07.006Z,125.90
2017-09-24T05:53:07.023Z,115.60
2017-09-24T05:54:07.046Z,119.20
2017-09-24T05:55:07.065Z,124.20
2017-09-24T05:56:07.088Z,133.90
2017-09-24T05:57:07.102Z,130.40
2017-09-24T05:58:07.149Z,119.10
2017-09-24T05:59:07.146Z,114.40
2017-09-24T06:00:07.161Z,120.00
2017-09-24T06:01:07.183Z,128.90
2017-09-24T06:02:07.238Z,134.30
2017-09-24T06:03:07.230Z,148.90
2017-09-24T06:04:07.279Z,130.70
2017-09-24T06:05:07.275Z,130.00
2017-09-24T06:06:07.311Z,123.40
2017-09-24T06:07:07.318Z,119.20
2017-09-24T06:08:07.321Z,129.00
2017-09-24T06:09:07.342Z,125.20
2017-09-24T06:10:07.370Z,123.00
2017-09-24T06:11:07.389Z,111.80
2017-09-24T06:12:07.411Z,119.80
2017-09-24T06:13:07.427Z,116.90
2017-09-24T06:14:07.447Z,112.70
2017-09-24T06:15:07.476Z,119.90
2017-09-24T06:16:07.486Z,128.10
2017-09-24T06:17:07.505Z,129.50
2017-09-24T06:18:07.532Z,130.70
2017-09-24T06:19:07.553Z,122.80
2017-09-24T06:20:07.572Z,123.30
2017-09-24T06:21:07.590Z,126.10
2017-09-24T06:22:07.610Z,116.90
2017-09-24T06:23:07.627Z,134.60
2017-09-24T06:24:07.648Z,130.60
2017-09-24T06:25:07.677Z,126.00
2017-09-24T06:26:07.692Z,130.10
2017-09-24T06:27:07.720Z,121.70
2017-09-24T06:28:07.741Z,117.70
2017-09-24T06:29:07.759Z,114.70
2017-09-24T06:30:07.784Z,121.90
2017-09-24T06:31:07.828Z,125.50
2017-09-24T06:32:07.812Z,123.40
2017-09-24T06:33:07.834Z,118.50
2017-09-24T06:34:07.855Z,125.00
2017-09-24T06:35:07.886Z,120.30
2017-09-24T06:36:07.893Z,122.20
2017-09-24T06:37:07.914Z,123.60
2017-09-24T06:38:08.012Z,124.60
2017-09-24T06:39:07.961Z,119.40
2017-09-24T06:40:07.969Z,116.70
2017-09-24T06:41:07.996Z,113.10
2017-09-24T06:42:08.013Z,116.80
2017-09-24T06:43:08.033Z,128.30
2017-09-24T06:44:08.052Z,122.80
2017-09-24T06:45:08.082Z,113.20
2017-09-24T06:46:08.094Z,119.90
2017-09-24T06:47:08.115Z,123.20
2017-09-24T06:48:08.148Z,118.40
2017-09-24T06:49:08.163Z,127.30
2017-09-24T06:50:08.178Z,110.40
2017-09-24T06:51:08.198Z,114.50
2017-09-24T06:52:08.231Z,113.30
2017-09-24T06:53:08.243Z,118.10
2017-09-24T06:54:08.266Z,113.20
2017-09-24T06:55:08.280Z,104.10
2017-09-24T06:56:08.311Z,100.60
2017-09-24T06:57:08.336Z,98.10
2017-09-24T06:58:08.402Z,97.40
2017-09-24T06:59:08.361Z,83.30
2017-09-24T07:00:08.384Z,83.30
2017-09-24T07:01:08.401Z,78.40
2017-09-24T07:02:08.426Z,80.30
2017-09-24T07:03:08.448Z,82.80
2017-09-24T07:04:08.471Z,72.50
2017-09-24T07:05:08.489Z,68.10
2017-09-24T07:06:08.510Z,70.30
2017-09-24T07:07:08.534Z,73.60
2017-09-24T07:08:08.549Z,68.30
2017-09-24T07:09:08.568Z,71.50
2017-09-24T07:10:08.590Z,68.00
2017-09-24T07:11:08.609Z,68.80
2017-09-24T07:12:08.632Z,70.40
2017-09-24T07:13:08.659Z,70.80
2017-09-24T07:14:08.675Z,62.40
2017-09-24T07:15:08.704Z,67.60
2017-09-24T07:16:08.714Z,68.20
2017-09-24T07:17:08.736Z,66.90
2017-09-24T07:18:08.758Z,66.80
2017-09-24T07:19:08.789Z,64.00
2017-09-24T07:20:08.799Z,70.30
2017-09-24T07:21:08.826Z,66.30
2017-09-24T07:22:08.853Z,66.60
2017-09-24T07:23:08.867Z,62.60
2017-09-24T07:24:08.886Z,65.40
2017-09-24T07:25:08.904Z,65.60
2017-09-24T07:26:08.924Z,60.30
2017-09-24T07:27:08.958Z,62.00
2017-09-24T07:28:08.967Z,64.20
2017-09-24T07:29:09.000Z,61.20
2017-09-24T07:30:09.023Z,62.90
2017-09-24T07:31:09.030Z,63.10
2017-09-24T07:32:09.050Z,59.40
2017-09-24T07:33:09.077Z,63.10
2017-09-24T07:34:09.097Z,61.80
2017-09-24T07:35:09.112Z,61.30
2017-09-24T07:36:09.135Z,63.90
2017-09-24T07:37:09.169Z,58.80
2017-09-24T07:38:09.180Z,54.60
2017-09-24T07:39:09.212Z,58.50
2017-09-24T07:40:09.313Z,61.70
2017-09-24T07:41:09.260Z,55.70
2017-09-24T07:42:09.267Z,54.30
2017-09-24T07:43:09.288Z,57.50
2017-09-24T07:44:09.321Z,58.70
2017-09-24T07:45:09.333Z,55.50
2017-09-24T07:46:09.353Z,55.60
2017-09-24T07:47:10.071Z,56.80
2017-09-24T07:48:09.393Z,51.00
2017-09-24T07:49:09.417Z,47.90
2017-09-24T07:50:09.440Z,42.00
2017-09-24T07:51:09.467Z,40.50
2017-09-24T07:52:09.588Z,39.30
2017-09-24T07:53:09.569Z,38.60
2017-09-24T07:54:09.629Z,37.40
2017-09-24T07:55:09.662Z,38.20
2017-09-24T07:56:09.683Z,38.80
2017-09-24T07:57:09.623Z,38.40
2017-09-24T07:58:09.714Z,41.20
2017-09-24T07:59:09.652Z,38.50
2017-09-24T08:00:09.770Z,37.00
2017-09-24T08:01:09.768Z,35.80
2017-09-24T08:02:09.848Z,32.00
2017-09-24T08:03:09.762Z,31.70
2017-09-24T08:04:09.859Z,30.40
2017-09-24T08:05:09.882Z,33.90
2017-09-24T08:06:09.913Z,33.10
2017-09-24T08:07:09.929Z,33.50
2017-09-24T08:08:14.672Z,33.90
2017-09-24T08:12:13.871Z,32.40
2017-09-24T08:13:14.883Z,34.00
2017-09-24T08:19:44.446Z,20.50
2017-09-24T08:20:46.442Z,18.90
2017-09-24T08:22:37.411Z,17.90
2017-09-24T08:23:38.408Z,18.40
2017-09-24T08:25:30.003Z,17.60
2017-09-24T08:29:18.152Z,18.70
2017-09-24T08:42:14.430Z,18.40
2017-09-24T08:44:43.915Z,21.00
2017-09-24T08:45:27.420Z,22.40
2017-09-24T08:47:35.885Z,21.20
2017-09-24T08:48:21.469Z,21.10
2017-09-24T08:50:14.754Z,21.10
2017-09-24T08:51:14.438Z,22.00
2017-09-24T09:08:52.123Z,22.00
2017-09-24T09:10:24.100Z,20.50
2017-09-24T09:12:37.175Z,21.10
2017-09-24T09:13:37.295Z,23.40
2017-09-24T09:15:30.275Z,19.00
2017-09-24T09:16:30.157Z,18.40
2017-09-24T09:18:23.245Z,17.30
2017-09-24T09:19:23.724Z,17.90
2017-09-24T09:21:18.696Z,18.10
2017-09-24T09:22:17.090Z,17.20
2017-09-24T09:24:10.061Z,14.60
2017-09-24T09:25:10.645Z,14.50
2017-09-24T09:27:03.114Z,15.60
2017-09-24T09:28:03.028Z,15.70
2017-09-24T09:29:58.109Z,15.30
2017-09-24T09:30:56.096Z,14.60
2017-09-24T09:32:49.557Z,15.00
2017-09-24T09:33:50.477Z,14.30
2017-09-24T09:35:43.014Z,13.20
2017-09-24T09:36:42.516Z,14.10
2017-09-24T09:38:34.902Z,13.20
2017-09-24T09:40:48.439Z,11.40
2017-09-24T09:41:47.940Z,12.10
2017-09-24T09:43:40.923Z,12.00
2017-09-24T09:44:40.810Z,10.60
2017-09-24T09:46:33.743Z,15.20
2017-09-24T09:50:36.682Z,10.50
2017-09-24T09:51:19.206Z,11.40
2017-09-24T09:53:12.167Z,10.40
2017-09-24T09:54:13.296Z,10.40
2017-09-24T09:56:06.182Z,12.40
2017-09-24T09:57:06.661Z,11.70
2017-09-24T09:59:12.632Z,10.70
2017-09-24T09:59:58.125Z,10.40
2017-09-24T10:01:51.317Z,11.40
2017-09-24T10:04:04.026Z,12.50
2017-09-24T10:06:18.915Z,11.50
2017-09-24T10:08:31.492Z,11.00
2017-09-24T10:09:30.986Z,15.40
2017-09-24T19:40:56.368Z,24.50
2017-09-24T19:41:56.279Z,24.60
2017-09-24T19:43:49.333Z,23.00
2017-09-24T19:44:49.301Z,23.40
2017-09-24T19:46:42.352Z,25.00
2017-09-24T19:47:42.352Z,27.50
2017-09-24T19:49:35.419Z,27.20
2017-09-24T19:50:35.420Z,24.80
2017-09-24T19:52:28.484Z,25.70
2017-09-24T19:53:28.578Z,25.10
2017-09-24T19:55:21.540Z,23.00
2017-09-24T19:56:21.501Z,23.20
2017-09-24T19:58:14.553Z,24.70
2017-09-24T19:59:14.524Z,23.40
2017-09-24T20:01:09.258Z,26.00
2017-09-24T20:02:09.281Z,25.80
2017-09-24T20:04:03.322Z,27.10
2017-09-24T20:05:03.408Z,23.50
2017-09-24T20:06:56.447Z,23.10
2017-09-24T20:07:56.330Z,23.40
2017-09-24T20:09:49.910Z,23.90
2017-09-24T20:10:49.989Z,23.60
2017-09-24T20:12:42.892Z,21.60
2017-09-24T20:13:42.908Z,21.80
2017-09-24T20:15:35.977Z,19.20
2017-09-24T20:16:35.955Z,21.00
2017-09-24T20:18:28.973Z,22.30
2017-09-24T20:19:28.981Z,24.00
2017-09-24T20:21:22.582Z,24.40
2017-09-24T20:22:22.574Z,25.90
2017-09-24T20:24:15.591Z,27.60
2017-09-24T20:25:15.603Z,25.20
2017-09-24T20:27:08.663Z,26.90
2017-09-24T20:28:08.651Z,24.70
2017-09-24T20:30:01.722Z,24.30
2017-09-24T20:31:01.672Z,23.20
2017-09-24T20:32:54.736Z,25.20
2017-09-24T20:33:54.821Z,22.90
2017-09-24T20:35:59.666Z,24.20
2017-09-24T20:36:59.639Z,24.40
2017-09-24T20:38:52.680Z,22.10
2017-09-24T20:39:52.673Z,20.10
2017-09-24T20:41:45.730Z,20.40
2017-09-24T20:42:45.724Z,22.70
2017-09-24T20:44:38.736Z,21.40
2017-09-24T20:45:38.754Z,24.40
2017-09-24T20:47:31.799Z,20.50
2017-09-24T20:48:31.798Z,18.40
2017-09-24T20:50:24.835Z,22.80
2017-09-24T20:51:24.833Z,23.40
2017-09-24T20:53:17.899Z,24.10
2017-09-24T20:54:17.870Z,20.40
2017-09-24T20:56:11.062Z,25.60
2017-09-24T20:57:10.897Z,24.30
2017-09-24T20:59:03.921Z,25.60
2017-09-24T21:00:03.945Z,23.40
2017-09-24T21:01:57.033Z,21.50
2017-09-24T21:02:56.982Z,22.30
2017-09-24T21:04:50.030Z,27.90
2017-09-24T21:05:50.011Z,23.70
2017-09-24T21:07:44.061Z,27.80
2017-09-24T21:08:44.041Z,26.10
2017-09-24T21:10:37.082Z,24.10
2017-09-24T21:11:37.069Z,27.40
2017-09-24T21:13:30.110Z,24.40
2017-09-24T21:14:30.103Z,25.60
2017-09-24T21:16:23.162Z,28.80
2017-09-24T21:17:23.148Z,28.40
2017-09-24T21:19:16.204Z,24.00
2017-09-24T21:20:16.190Z,22.70
2017-09-24T21:22:09.208Z,23.60
2017-09-24T21:23:09.224Z,24.40
2017-09-24T21:25:02.285Z,28.30
2017-09-24T21:26:02.292Z,25.00
2017-09-24T21:27:55.280Z,24.60
2017-09-24T21:28:55.285Z,25.20
2017-09-24T21:30:48.351Z,25.30
2017-09-24T21:31:48.331Z,22.80
2017-09-24T21:33:41.368Z,24.80
2017-09-24T21:34:41.354Z,24.00
2017-09-24T21:36:34.389Z,26.20
2017-09-24T21:37:34.394Z,22.50
2017-09-24T21:39:27.480Z,21.90
2017-09-24T21:40:27.445Z,21.20
2017-09-24T21:42:20.945Z,24.00
2017-09-24T21:43:20.972Z,22.20
2017-09-24T21:45:14.026Z,26.10
2017-09-24T21:46:14.006Z,23.90
2017-09-24T21:48:07.025Z,21.90
2017-09-24T21:49:07.079Z,21.40
2017-09-24T21:51:00.129Z,23.20
2017-09-24T21:52:00.087Z,22.10
2017-09-24T21:53:53.108Z,23.30
2017-09-24T21:54:53.118Z,22.10
2017-09-24T21:56:46.200Z,27.00
2017-09-24T21:57:46.153Z,26.40
2017-09-24T21:59:40.168Z,22.70
2017-09-24T22:00:40.180Z,21.50
2017-09-24T22:02:33.242Z,24.10
2017-09-24T22:03:33.214Z,23.70
2017-09-24T22:05:26.396Z,21.80
2017-09-24T22:06:26.260Z,22.10
2017-09-24T22:08:31.692Z,22.60
2017-09-24T22:09:31.714Z,24.00
2017-09-24T22:11:24.773Z,23.70
2017-09-24T22:12:24.736Z,23.10
2017-09-24T22:14:17.777Z,28.60
2017-09-24T22:15:17.792Z,23.30
2017-09-24T22:17:10.882Z,24.20
2017-09-24T22:18:10.819Z,22.50
2017-09-24T22:20:04.357Z,20.80
2017-09-24T22:21:04.375Z,22.40
2017-09-24T22:22:57.450Z,26.70
2017-09-24T22:23:57.401Z,25.70
2017-09-24T22:25:50.425Z,26.10
2017-09-24T22:26:50.462Z,23.40
2017-09-24T22:28:43.486Z,25.20
2017-09-24T22:29:43.473Z,23.40
2017-09-24T22:31:36.541Z,26.60
2017-09-24T22:32:36.517Z,24.50
2017-09-24T22:34:29.543Z,27.70
2017-09-24T22:35:29.579Z,24.10
2017-09-24T22:37:22.627Z,23.20
2017-09-24T22:38:22.582Z,24.10
2017-09-24T22:40:15.644Z,26.70
2017-09-24T22:41:15.633Z,25.10
2017-09-24T22:43:09.352Z,25.50
2017-09-24T22:44:09.209Z,24.90
2017-09-24T22:46:02.198Z,25.70
2017-09-24T22:47:02.219Z,25.80
2017-09-24T22:48:55.292Z,24.00
2017-09-24T22:49:55.279Z,23.50
2017-09-24T22:51:48.280Z,28.30
2017-09-24T22:52:48.295Z,28.20
2017-09-24T22:54:41.348Z,27.20
2017-09-24T22:55:41.345Z,29.60
2017-09-24T22:57:34.359Z,28.60
2017-09-24T22:58:34.379Z,26.90
2017-09-24T23:00:27.426Z,25.50
2017-09-24T23:01:27.415Z,26.80
2017-09-24T23:03:20.490Z,32.40
2017-09-24T23:04:20.452Z,28.20
2017-09-24T23:06:13.485Z,29.00
2017-09-24T23:07:13.492Z,27.40
2017-09-24T23:09:06.552Z,33.80
2017-09-24T23:10:06.534Z,32.80
2017-09-24T23:11:59.564Z,28.90
2017-09-24T23:12:59.584Z,25.90
2017-09-24T23:15:04.494Z,28.20
2017-09-24T23:16:04.476Z,29.20
2017-09-24T23:17:58.503Z,28.70
2017-09-24T23:18:58.495Z,27.40
2017-09-24T23:20:51.588Z,30.30
2017-09-24T23:21:51.543Z,28.00
2017-09-24T23:23:44.548Z,30.90
2017-09-24T23:24:44.588Z,29.30
2017-09-24T23:26:37.638Z,32.50
2017-09-24T23:27:37.609Z,31.30
2017-09-24T23:29:30.642Z,33.90
2017-09-24T23:30:30.651Z,34.20
2017-09-24T23:32:23.702Z,36.20
2017-09-24T23:33:23.684Z,38.00
2017-09-24T23:35:16.885Z,34.90
2017-09-24T23:36:16.726Z,36.20
2017-09-24T23:38:09.757Z,38.20
2017-09-24T23:39:09.765Z,36.60
2017-09-24T23:41:02.846Z,32.90
2017-09-24T23:42:02.785Z,33.10
2017-09-24T23:43:55.823Z,32.00
2017-09-24T23:44:55.829Z,33.10
2017-09-24T23:46:48.879Z,33.60
2017-09-24T23:47:48.860Z,36.00
2017-09-24T23:49:41.895Z,32.30
2017-09-24T23:50:41.904Z,30.00
2017-09-24T23:52:47.312Z,34.70
2017-09-24T23:53:47.282Z,31.70
2017-09-24T23:55:41.303Z,35.90
2017-09-24T23:56:41.329Z,37.00
2017-09-24T23:58:34.405Z,34.20
2017-09-24T23:59:34.396Z,33.40
